地図

経路データ

SID SEASON NUMBER BASIN SUBBASIN NAME ISO_TIME NATURE LAT LON WMO_WIND WMO_PRES WMO_AGENCY TRACK_TYPE DIST2LAND LANDFALL IFLAG USA_AGENCY USA_ATCF_ID USA_LAT USA_LON USA_RECORD USA_STATUS USA_WIND USA_PRES USA_SSHS USA_R34_NE USA_R34_SE USA_R34_SW USA_R34_NW USA_R50_NE USA_R50_SE USA_R50_SW USA_R50_NW USA_R64_NE USA_R64_SE USA_R64_SW USA_R64_NW USA_POCI USA_ROCI USA_RMW USA_EYE TOKYO_LAT TOKYO_LON TOKYO_GRADE TOKYO_WIND TOKYO_PRES TOKYO_R50_DIR TOKYO_R50_LONG TOKYO_R50_SHORT TOKYO_R30_DIR TOKYO_R30_LONG TOKYO_R30_SHORT TOKYO_LAND CMA_LAT CMA_LON CMA_CAT CMA_WIND CMA_PRES HKO_LAT HKO_LON HKO_CAT HKO_WIND HKO_PRES NEWDELHI_LAT NEWDELHI_LON NEWDELHI_GRADE NEWDELHI_WIND NEWDELHI_PRES NEWDELHI_CI NEWDELHI_DP NEWDELHI_POCI REUNION_LAT REUNION_LON REUNION_TYPE REUNION_WIND REUNION_PRES REUNION_TNUM REUNION_CI REUNION_RMW REUNION_R34_NE REUNION_R34_SE REUNION_R34_SW REUNION_R34_NW REUNION_R50_NE REUNION_R50_SE REUNION_R50_SW REUNION_R50_NW REUNION_R64_NE REUNION_R64_SE REUNION_R64_SW REUNION_R64_NW BOM_LAT BOM_LON BOM_TYPE BOM_WIND BOM_PRES BOM_TNUM BOM_CI BOM_RMW BOM_R34_NE BOM_R34_SE BOM_R34_SW BOM_R34_NW BOM_R50_NE BOM_R50_SE BOM_R50_SW BOM_R50_NW BOM_R64_NE BOM_R64_SE BOM_R64_SW BOM_R64_NW BOM_ROCI BOM_POCI BOM_EYE BOM_POS_METHOD BOM_PRES_METHOD NADI_LAT NADI_LON NADI_CAT NADI_WIND NADI_PRES WELLINGTON_LAT WELLINGTON_LON WELLINGTON_WIND WELLINGTON_PRES DS824_LAT DS824_LON DS824_STAGE DS824_WIND DS824_PRES TD9636_LAT TD9636_LON TD9636_STAGE TD9636_WIND TD9636_PRES TD9635_LAT TD9635_LON TD9635_WIND TD9635_PRES TD9635_ROCI NEUMANN_LAT NEUMANN_LON NEUMANN_CLASS NEUMANN_WIND NEUMANN_PRES MLC_LAT MLC_LON MLC_CLASS MLC_WIND MLC_PRES USA_GUST BOM_GUST BOM_GUST_PER REUNION_GUST REUNION_GUST_PER USA_SEAHGT USA_SEARAD_NE USA_SEARAD_SE USA_SEARAD_SW USA_SEARAD_NW STORM_SPEED STORM_DIR
1914258N25284 1914 33 NA NA NOT_NAMED 1914-09-15 00:00:00 TS 25.2000 -76.4000 30 hurdat_atl main 151 147 O_____________ hurdat_atl AL011914 25.2000 -76.4000 TD 30 -1 8 339
1914258N25284 1914 33 NA NA NOT_NAMED 1914-09-15 03:00:00 TS 25.5575 -76.5498 main 160 151 P_____________ AL011914 25.5575 -76.5498 TD 30 -1 8 339
1914258N25284 1914 33 NA NA NOT_NAMED 1914-09-15 06:00:00 TS 25.9000 -76.7000 30 hurdat_atl main 158 156 O_____________ hurdat_atl AL011914 25.9000 -76.7000 TD 30 -1 7 338
1914258N25284 1914 33 NA NA NOT_NAMED 1914-09-15 09:00:00 TS 26.2150 -76.8501 main 165 165 P_____________ AL011914 26.2150 -76.8501 TD 32 -1 7 336
1914258N25284 1914 33 NA NA NOT_NAMED 1914-09-15 12:00:00 TS 26.5000 -77.0000 35 hurdat_atl main 185 185 O_____________ hurdat_atl AL011914 26.5000 -77.0000 TS 35 0 6 334
1914258N25284 1914 33 NA NA NOT_NAMED 1914-09-15 15:00:00 TS 26.7575 -77.1426 main 210 206 P_____________ AL011914 26.7575 -77.1426 TS 35 0 6 332
1914258N25284 1914 33 NA NA NOT_NAMED 1914-09-15 18:00:00 TS 27.0000 -77.3000 35 hurdat_atl main 223 223 O_____________ hurdat_atl AL011914 27.0000 -77.3000 TS 35 0 6 328
1914258N25284 1914 33 NA NA NOT_NAMED 1914-09-15 21:00:00 TS 27.2500 -77.4925 main 250 237 P_____________ AL011914 27.2500 -77.4925 TS 37 0 6 324
1914258N25284 1914 33 NA NA NOT_NAMED 1914-09-16 00:00:00 TS 27.5000 -77.7000 40 hurdat_atl main 240 230 O_____________ hurdat_atl AL011914 27.5000 -77.7000 TS 40 0 6 324
1914258N25284 1914 33 NA NA NOT_NAMED 1914-09-16 03:00:00 TS 27.7500 -77.9001 main 230 221 P_____________ AL011914 27.7500 -77.9001 TS 42 0 6 325
1914258N25284 1914 33 NA NA NOT_NAMED 1914-09-16 06:00:00 TS 28.0000 -78.1000 45 hurdat_atl main 225 215 O_____________ hurdat_atl AL011914 28.0000 -78.1000 TS 45 0 6 326
1914258N25284 1914 33 NA NA NOT_NAMED 1914-09-16 09:00:00 TS 28.2423 -78.2778 main 215 195 P_____________ AL011914 28.2423 -78.2778 TS 47 0 6 325
1914258N25284 1914 33 NA NA NOT_NAMED 1914-09-16 12:00:00 TS 28.5000 -78.5000 50 hurdat_atl main 195 167 O_____________ hurdat_atl AL011914 28.5000 -78.5000 TS 50 0 7 319
1914258N25284 1914 33 NA NA NOT_NAMED 1914-09-16 15:00:00 TS 28.7849 -78.8127 main 169 143 P_____________ AL011914 28.7849 -78.8127 TS 52 0 9 314
1914258N25284 1914 33 NA NA NOT_NAMED 1914-09-16 18:00:00 TS 29.1000 -79.2000 55 hurdat_atl main 143 129 O_____________ hurdat_atl AL011914 29.1000 -79.2000 TS 55 0 10 313
1914258N25284 1914 33 NA NA NOT_NAMED 1914-09-16 21:00:00 TS 29.4423 -79.6202 main 129 106 P_____________ AL011914 29.4423 -79.6202 TS 57 0 11 312
1914258N25284 1914 33 NA NA NOT_NAMED 1914-09-17 00:00:00 TS 29.8000 -80.1000 60 hurdat_atl main 106 75 O_____________ hurdat_atl AL011914 29.8000 -80.1000 TS 60 0 11 310
1914258N25284 1914 33 NA NA NOT_NAMED 1914-09-17 03:00:00 TS 30.1634 -80.6245 main 77 28 P_____________ AL011914 30.1634 -80.6245 TS 60 0 12 306
1914258N25284 1914 33 NA NA NOT_NAMED 1914-09-17 06:00:00 TS 30.5000 -81.2000 60 hurdat_atl main 28 9 O_____________ hurdat_atl AL011914 30.5000 -81.2000 TS 60 0 12 303
1914258N25284 1914 33 NA NA NOT_NAMED 1914-09-17 07:00:00 TS 30.6000 -81.4000 60 hurdat_atl main 9 0 O_____________ hurdat_atl AL011914 30.6000 -81.4000 L TS 60 0 12 298
1914258N25284 1914 33 NA NA NOT_NAMED 1914-09-17 09:00:00 TS 30.7844 -81.8229 main 0 0 P_____________ AL011914 30.7844 -81.8229 TS 51 0 12 293
1914258N25284 1914 33 NA NA NOT_NAMED 1914-09-17 12:00:00 TS 31.0000 -82.5000 40 hurdat_atl main 0 0 O_____________ hurdat_atl AL011914 31.0000 -82.5000 TS 40 0 12 287
1914258N25284 1914 33 NA NA NOT_NAMED 1914-09-17 15:00:00 TS 31.1446 -83.1862 main 0 0 P_____________ AL011914 31.1446 -83.1862 TS 37 0 12 279
1914258N25284 1914 33 NA NA NOT_NAMED 1914-09-17 18:00:00 TS 31.2000 -83.9000 35 hurdat_atl main 0 0 O_____________ hurdat_atl AL011914 31.2000 -83.9000 TS 35 0 12 273
1914258N25284 1914 33 NA NA NOT_NAMED 1914-09-17 21:00:00 TS 31.2095 -84.6345 main 0 0 P_____________ AL011914 31.2095 -84.6345 TS 35 0 13 266
1914258N25284 1914 33 NA NA NOT_NAMED 1914-09-18 00:00:00 TS 31.1000 -85.4000 35 hurdat_atl main 0 0 O_____________ hurdat_atl AL011914 31.1000 -85.4000 TS 35 0 14 253
1914258N25284 1914 33 NA NA NOT_NAMED 1914-09-18 03:00:00 TS 30.8144 -86.1785 main 0 0 P_____________ AL011914 30.8144 -86.1785 TS 35 0 15 246
1914258N25284 1914 33 NA GM NOT_NAMED 1914-09-18 06:00:00 TS 30.5000 -87.0000 35 hurdat_atl main 0 0 O_____________ hurdat_atl AL011914 30.5000 -87.0000 TS 35 0 16 251
1914258N25284 1914 33 NA GM NOT_NAMED 1914-09-18 09:00:00 TS 30.3122 -87.8846 main 11 0 P_____________ AL011914 30.3122 -87.8846 TS 35 0 16 259
1914258N25284 1914 33 NA GM NOT_NAMED 1914-09-18 12:00:00 TS 30.2000 -88.8000 35 hurdat_atl main 14 9 O_____________ hurdat_atl AL011914 30.2000 -88.8000 TS 35 0 16 264
1914258N25284 1914 33 NA GM NOT_NAMED 1914-09-18 15:00:00 TS 30.1347 -89.7145 main 9 0 P_____________ AL011914 30.1347 -89.7145 TS 32 -1 16 266
1914258N25284 1914 33 NA NA NOT_NAMED 1914-09-18 18:00:00 TS 30.1000 -90.6000 30 hurdat_atl main 0 0 O_____________ hurdat_atl AL011914 30.1000 -90.6000 TD 30 -1 15 266
1914258N25284 1914 33 NA NA NOT_NAMED 1914-09-18 21:00:00 TS 30.0419 -91.4226 main 0 0 P_____________ AL011914 30.0419 -91.4226 TD 30 -1 14 266
1914258N25284 1914 33 NA NA NOT_NAMED 1914-09-19 00:00:00 TS 30.0000 -92.2000 30 hurdat_atl main 0 0 O_____________ hurdat_atl AL011914 30.0000 -92.2000 TD 30 -1 13 268
1914258N25284 1914 33 NA NA NOT_NAMED 1914-09-19 03:00:00 TS 29.9909 -92.9549 main 0 0 P_____________ AL011914 29.9909 -92.9549 TD 27 -1 13 270
1914258N25284 1914 33 NA NA NOT_NAMED 1914-09-19 06:00:00 TS 30.0000 -93.7000 25 hurdat_atl main 0 O_____________ hurdat_atl AL011914 30.0000 -93.7000 TD 25 -1 13 271

IBTrACS Databaseについて

本データベースは、米国NOAAが公開する1842年以降の世界の熱帯低気圧のベストトラックデータアーカイブInternational Best Track Archive for Climate Stewardship (IBTrACS)を、ウェブで閲覧しやすい形式に変換したものです。

最終更新日:2021-10-21